Time;durP1;ratioP1;P1;durP2;ratioP2;P2;SDS_P1;SDS_P2;PMS_P1;PMS_P2;Temp;Humidity;BMP_temperature;BMP_pressure;BME280_temperature;BME280_humidity;BME280_pressure;Samples;Min_cycle;Max_cycle;Signal;HPM_P1;HPM_P2
2022/01/03 00:00:45;;;;;;;4.20;0.70;;;;;;;;;;5003286;28;20204;-81
2022/01/03 00:03:13;;;;;;;4.37;1.10;;;;;;;;;;5004201;28;20691;-83
2022/01/03 00:05:41;;;;;;;3.13;1.10;;;;;;;;;;5003428;28;20204;-81
2022/01/03 00:08:08;;;;;;;10.57;1.17;;;;;;;;;;5000078;28;20343;-81
2022/01/03 00:10:37;;;;;;;8.93;1.37;;;;;;;;;;5003601;28;20255;-81
2022/01/03 00:13:05;;;;;;;8.53;1.20;;;;;;;;;;5001753;28;20247;-81
2022/01/03 00:15:33;;;;;;;7.50;1.10;;;;;;;;;;5002028;28;20244;-82
2022/01/03 00:18:00;;;;;;;5.60;0.97;;;;;;;;;;5007502;28;20647;-80
2022/01/03 00:20:28;;;;;;;10.23;1.37;;;;;;;;;;5000593;28;20287;-81
2022/01/03 00:22:57;;;;;;;9.53;1.03;;;;;;;;;;5001293;28;20379;-81
2022/01/03 00:25:25;;;;;;;9.10;1.00;;;;;;;;;;5008134;28;20204;-81
2022/01/03 00:27:58;;;;;;;6.67;1.20;;;;;;;;;;5004493;28;20599;-82
2022/01/03 00:30:26;;;;;;;9.30;1.10;;;;;;;;;;5002655;28;20228;-82
2022/01/03 00:32:54;;;;;;;7.10;0.90;;;;;;;;;;5004276;28;20287;-81
2022/01/03 00:35:21;;;;;;;4.47;1.10;;;;;;;;;;5006417;28;20220;-82
2022/01/03 00:37:49;;;;;;;7.07;1.13;;;;;;;;;;5004870;28;20221;-82
2022/01/03 00:40:17;;;;;;;13.47;1.53;;;;;;;;;;5002623;28;20294;-81
2022/01/03 00:42:45;;;;;;;15.63;1.30;;;;;;;;;;5003459;28;20675;-82
2022/01/03 00:45:13;;;;;;;7.40;1.27;;;;;;;;;;5003502;28;20292;-81
2022/01/03 00:47:41;;;;;;;14.57;1.50;;;;;;;;;;5001994;28;20686;-83
2022/01/03 00:50:09;;;;;;;9.63;1.50;;;;;;;;;;5011173;28;20212;-85
2022/01/03 00:52:37;;;;;;;10.60;1.73;;;;;;;;;;5002573;28;20201;-84
2022/01/03 00:55:04;;;;;;;11.17;1.27;;;;;;;;;;5005748;28;20261;-84
2022/01/03 00:57:35;;;;;;;14.57;1.43;;;;;;;;;;5007818;28;20196;-84
2022/01/03 01:00:06;;;;;;;9.83;1.30;;;;;;;;;;5001812;28;20251;-82
2022/01/03 01:02:36;;;;;;;8.87;0.93;;;;;;;;;;5001939;28;20472;-84
2022/01/03 01:05:03;;;;;;;7.10;1.33;;;;;;;;;;5008836;28;20220;-84
2022/01/03 01:07:32;;;;;;;3.80;0.90;;;;;;;;;;5006359;28;20232;-83
2022/01/03 01:10:01;;;;;;;14.20;1.50;;;;;;;;;;5004611;28;20230;-85
2022/01/03 01:12:28;;;;;;;10.47;1.73;;;;;;;;;;5034743;23;20292;-81
2022/01/03 01:14:56;;;;;;;10.13;1.47;;;;;;;;;;5048610;28;20294;-81
2022/01/03 01:17:23;;;;;;;12.67;1.10;;;;;;;;;;5053160;28;20195;-82
2022/01/03 01:19:52;;;;;;;11.13;1.30;;;;;;;;;;5049272;28;20281;-82
2022/01/03 01:22:21;;;;;;;13.13;1.30;;;;;;;;;;5042954;28;20783;-82
2022/01/03 01:24:59;;;;;;;12.60;1.70;;;;;;;;;;5029310;28;20713;-82
2022/01/03 01:30:12;;;;;;;8.07;1.00;;;;;;;;;;5025645;28;20290;-81
2022/01/03 01:32:41;;;;;;;9.20;1.30;;;;;;;;;;5029050;28;20266;-81
2022/01/03 01:35:10;;;;;;;15.13;1.40;;;;;;;;;;5031635;28;20204;-80
2022/01/03 01:37:38;;;;;;;11.03;1.63;;;;;;;;;;5031913;28;20207;-81
2022/01/03 01:40:05;;;;;;;8.93;1.30;;;;;;;;;;5030901;28;20207;-81
2022/01/03 01:42:33;;;;;;;12.53;1.80;;;;;;;;;;5031116;28;20235;-81
2022/01/03 01:45:05;;;;;;;8.33;1.30;;;;;;;;;;5029973;28;20684;-81
2022/01/03 01:47:34;;;;;;;12.27;1.40;;;;;;;;;;5029373;28;20234;-81
2022/01/03 01:50:04;;;;;;;14.77;1.70;;;;;;;;;;5030613;28;20215;-81
2022/01/03 01:52:35;;;;;;;12.10;1.47;;;;;;;;;;5028411;28;20227;-80
2022/01/03 01:55:06;;;;;;;6.87;1.03;;;;;;;;;;5029427;28;20208;-81
2022/01/03 01:57:40;;;;;;;12.37;1.60;;;;;;;;;;5028586;28;20519;-81
2022/01/03 02:00:10;;;;;;;13.73;2.07;;;;;;;;;;5027610;28;20219;-81
2022/01/03 02:02:38;;;;;;;12.10;1.03;;;;;;;;;;5031279;28;20232;-81
2022/01/03 02:05:19;;;;;;;6.00;1.13;;;;;;;;;;5031713;28;20299;-80
2022/01/03 02:08:03;;;;;;;5.53;1.43;;;;;;;;;;5027670;28;20210;-81
2022/01/03 02:10:36;;;;;;;12.90;0.80;;;;;;;;;;5031776;28;20207;-83
2022/01/03 02:13:04;;;;;;;6.63;0.87;;;;;;;;;;5031719;28;20232;-82
2022/01/03 02:15:34;;;;;;;4.07;0.60;;;;;;;;;;5031885;28;20203;-81
2022/01/03 02:18:01;;;;;;;6.20;0.97;;;;;;;;;;5033234;28;20207;-81
2022/01/03 02:20:31;;;;;;;1.20;0.40;;;;;;;;;;5030663;28;20287;-82
2022/01/03 02:22:58;;;;;;;4.10;0.73;;;;;;;;;;5033867;28;20273;-81
2022/01/03 02:25:26;;;;;;;3.97;0.70;;;;;;;;;;5031851;28;20204;-81
2022/01/03 02:27:54;;;;;;;5.50;0.77;;;;;;;;;;5034464;28;20287;-82
2022/01/03 02:30:23;;;;;;;4.17;1.00;;;;;;;;;;5030210;28;20232;-81
2022/01/03 02:32:50;;;;;;;3.90;0.60;;;;;;;;;;5031560;28;20255;-82
2022/01/03 02:35:18;;;;;;;7.17;1.37;;;;;;;;;;5029590;28;20203;-81
2022/01/03 02:37:47;;;;;;;11.70;1.93;;;;;;;;;;5034470;28;20267;-82
2022/01/03 02:40:15;;;;;;;19.17;1.70;;;;;;;;;;5032136;28;20207;-82
2022/01/03 02:42:42;;;;;;;10.67;1.77;;;;;;;;;;5030285;28;20220;-81
2022/01/03 02:45:11;;;;;;;12.10;1.83;;;;;;;;;;5030554;28;20301;-80
2022/01/03 02:47:39;;;;;;;11.43;1.60;;;;;;;;;;5031834;28;20230;-81
2022/01/03 02:50:07;;;;;;;6.43;1.30;;;;;;;;;;5029502;28;20204;-81
2022/01/03 02:52:34;;;;;;;7.47;1.50;;;;;;;;;;5029761;28;20745;-82
2022/01/03 02:55:04;;;;;;;11.90;1.33;;;;;;;;;;5029878;28;20271;-80
2022/01/03 02:57:35;;;;;;;10.57;1.50;;;;;;;;;;5031141;28;20203;-81
2022/01/03 03:00:03;;;;;;;3.97;0.90;;;;;;;;;;5031725;28;20286;-81
2022/01/03 03:02:30;;;;;;;11.47;2.03;;;;;;;;;;5028555;28;20620;-82
2022/01/03 03:04:58;;;;;;;17.33;1.50;;;;;;;;;;5026730;28;20646;-81
2022/01/03 03:07:26;;;;;;;6.43;1.40;;;;;;;;;;5029680;28;20288;-82
2022/01/03 03:09:53;;;;;;;6.00;1.17;;;;;;;;;;5030494;28;20286;-82
2022/01/03 03:12:21;;;;;;;9.10;1.10;;;;;;;;;;5028271;28;20230;-81
2022/01/03 03:14:49;;;;;;;5.93;0.97;;;;;;;;;;5031380;28;20613;-81
2022/01/03 03:17:18;;;;;;;6.13;1.20;;;;;;;;;;5032168;28;20290;-82
2022/01/03 03:19:56;;;;;;;7.80;1.53;;;;;;;;;;5026286;28;20208;-82
2022/01/03 03:22:23;;;;;;;11.57;1.43;;;;;;;;;;5022885;28;20322;-81
2022/01/03 03:24:50;;;;;;;16.67;1.23;;;;;;;;;;5028812;28;20211;-82
2022/01/03 03:27:20;;;;;;;10.17;1.63;;;;;;;;;;5026594;28;20267;-81
2022/01/03 03:29:49;;;;;;;7.57;1.23;;;;;;;;;;5030369;28;20518;-81
2022/01/03 03:32:16;;;;;;;7.73;1.10;;;;;;;;;;5029014;28;20234;-82
2022/01/03 03:34:44;;;;;;;14.53;2.00;;;;;;;;;;5028858;28;20208;-82
2022/01/03 03:37:12;;;;;;;6.40;1.10;;;;;;;;;;5027469;28;20210;-82
2022/01/03 03:39:39;;;;;;;7.47;1.17;;;;;;;;;;5028486;28;20265;-82
2022/01/03 03:42:07;;;;;;;6.13;1.10;;;;;;;;;;5025776;28;20222;-82
2022/01/03 03:44:34;;;;;;;5.60;1.13;;;;;;;;;;5026497;28;20200;-81
2022/01/03 03:47:04;;;;;;;11.80;1.27;;;;;;;;;;5029653;28;20588;-81
2022/01/03 03:49:32;;;;;;;5.90;1.10;;;;;;;;;;5030254;28;20718;-80
2022/01/03 03:52:01;;;;;;;6.80;1.23;;;;;;;;;;5027255;28;20231;-82
2022/01/03 03:54:28;;;;;;;11.20;1.40;;;;;;;;;;5027302;28;20204;-81
2022/01/03 03:56:56;;;;;;;13.80;1.80;;;;;;;;;;5021470;28;20300;-82
2022/01/03 03:59:23;;;;;;;11.27;1.50;;;;;;;;;;5026658;28;20231;-81
2022/01/03 04:01:51;;;;;;;11.30;1.40;;;;;;;;;;5028818;28;20199;-82
2022/01/03 04:04:19;;;;;;;10.67;1.00;;;;;;;;;;5025105;28;20243;-82
2022/01/03 04:06:47;;;;;;;9.70;1.47;;;;;;;;;;5027978;28;20203;-81
2022/01/03 04:09:14;;;;;;;12.00;1.10;;;;;;;;;;5032464;28;20225;-81
2022/01/03 04:11:42;;;;;;;8.30;1.27;;;;;;;;;;5027982;28;20853;-81
2022/01/03 04:14:09;;;;;;;9.20;1.50;;;;;;;;;;5029809;28;20223;-81
2022/01/03 04:16:38;;;;;;;6.60;1.43;;;;;;;;;;5031126;28;20601;-81
2022/01/03 04:19:05;;;;;;;9.70;1.40;;;;;;;;;;5024716;28;20243;-82
2022/01/03 04:21:34;;;;;;;11.83;1.37;;;;;;;;;;5027696;28;20200;-80
2022/01/03 04:24:01;;;;;;;12.87;1.50;;;;;;;;;;5027912;28;20204;-81
2022/01/03 04:26:28;;;;;;;6.03;1.10;;;;;;;;;;5026939;28;20662;-80
2022/01/03 04:28:55;;;;;;;5.97;1.30;;;;;;;;;;5026995;28;20279;-82
2022/01/03 04:31:23;;;;;;;12.07;1.43;;;;;;;;;;5025078;28;20298;-81
2022/01/03 04:33:50;;;;;;;6.40;1.00;;;;;;;;;;5024830;28;20592;-80
2022/01/03 04:36:17;;;;;;;12.83;1.67;;;;;;;;;;5027055;28;20208;-80
2022/01/03 04:38:45;;;;;;;4.70;1.10;;;;;;;;;;5026601;28;20204;-82
2022/01/03 04:41:13;;;;;;;6.73;1.10;;;;;;;;;;5027442;28;20203;-81
2022/01/03 04:43:41;;;;;;;5.23;0.80;;;;;;;;;;5022804;28;20234;-81
2022/01/03 04:46:08;;;;;;;9.87;1.27;;;;;;;;;;5027930;28;20250;-82
2022/01/03 04:48:36;;;;;;;12.73;1.70;;;;;;;;;;5026322;28;20207;-81
2022/01/03 04:51:03;;;;;;;7.53;1.23;;;;;;;;;;5024236;28;20200;-81
2022/01/03 04:53:30;;;;;;;8.53;1.20;;;;;;;;;;5023534;28;20224;-81
2022/01/03 04:55:58;;;;;;;10.90;1.67;;;;;;;;;;5026546;28;20208;-80
2022/01/03 04:58:26;;;;;;;9.53;1.00;;;;;;;;;;5026963;28;20406;-81
2022/01/03 05:00:53;;;;;;;7.63;0.90;;;;;;;;;;5028326;28;20215;-81
2022/01/03 05:03:20;;;;;;;8.87;1.20;;;;;;;;;;5022460;28;20695;-81
2022/01/03 05:05:47;;;;;;;12.03;1.80;;;;;;;;;;5021603;28;20203;-81
2022/01/03 05:08:14;;;;;;;4.17;0.80;;;;;;;;;;5025685;28;20208;-81
2022/01/03 05:10:41;;;;;;;6.63;1.30;;;;;;;;;;5029805;28;20199;-82
2022/01/03 05:13:10;;;;;;;5.13;1.23;;;;;;;;;;5021516;28;20238;-82
2022/01/03 05:15:37;;;;;;;5.97;1.23;;;;;;;;;;5026239;28;20673;-82
2022/01/03 05:18:04;;;;;;;6.47;1.00;;;;;;;;;;5027128;28;20574;-80
2022/01/03 05:20:32;;;;;;;9.03;0.90;;;;;;;;;;5022610;28;20204;-82
2022/01/03 05:22:59;;;;;;;9.00;1.10;;;;;;;;;;5028112;28;20527;-81
2022/01/03 05:25:26;;;;;;;7.43;1.10;;;;;;;;;;5028167;28;20218;-81
2022/01/03 05:27:54;;;;;;;9.07;0.93;;;;;;;;;;5026656;28;20200;-82
2022/01/03 05:30:22;;;;;;;13.20;2.13;;;;;;;;;;5026755;28;20661;-81
2022/01/03 05:32:49;;;;;;;10.27;1.20;;;;;;;;;;5027351;28;20237;-82
2022/01/03 05:35:17;;;;;;;5.70;1.03;;;;;;;;;;5026867;28;20214;-81
2022/01/03 05:37:44;;;;;;;11.50;1.17;;;;;;;;;;5030300;28;20210;-81
2022/01/03 05:40:11;;;;;;;6.93;1.00;;;;;;;;;;5027400;28;20210;-82
2022/01/03 05:42:40;;;;;;;4.87;0.90;;;;;;;;;;5023985;28;20220;-81
2022/01/03 05:45:08;;;;;;;10.63;1.63;;;;;;;;;;5028103;28;20316;-82
2022/01/03 05:47:39;;;;;;;5.87;1.00;;;;;;;;;;5027994;28;20206;-81
2022/01/03 05:50:07;;;;;;;8.67;1.17;;;;;;;;;;5027937;28;20216;-80
2022/01/03 05:52:34;;;;;;;9.00;1.37;;;;;;;;;;5027834;28;20240;-81
2022/01/03 05:55:01;;;;;;;6.77;1.00;;;;;;;;;;5027526;28;20622;-81
2022/01/03 05:57:28;;;;;;;6.50;1.27;;;;;;;;;;5029210;28;20307;-82
2022/01/03 05:59:55;;;;;;;6.27;1.10;;;;;;;;;;5025130;28;20551;-82
2022/01/03 06:02:23;;;;;;;6.57;1.23;;;;;;;;;;5024554;28;20702;-80
2022/01/03 06:04:58;;;;;;;8.00;1.30;;;;;;;;;;5029457;28;20238;-81
2022/01/03 06:07:26;;;;;;;6.37;1.33;;;;;;;;;;5026120;28;20204;-81
2022/01/03 06:09:53;;;;;;;13.27;1.40;;;;;;;;;;5029460;28;20691;-80
2022/01/03 06:12:20;;;;;;;10.53;1.40;;;;;;;;;;5024598;28;20242;-80
2022/01/03 06:14:48;;;;;;;11.40;1.10;;;;;;;;;;5024120;28;20286;-81
2022/01/03 06:17:17;;;;;;;14.37;1.43;;;;;;;;;;5029290;28;20295;-81
2022/01/03 06:19:44;;;;;;;5.87;1.10;;;;;;;;;;5023963;28;20235;-81
2022/01/03 06:22:13;;;;;;;7.83;1.10;;;;;;;;;;5029878;28;20216;-81
2022/01/03 06:24:41;;;;;;;9.27;1.43;;;;;;;;;;5025988;28;20200;-80
2022/01/03 06:27:08;;;;;;;8.77;1.27;;;;;;;;;;5027326;28;20204;-80
2022/01/03 06:29:35;;;;;;;9.53;1.33;;;;;;;;;;5028958;28;20291;-81
2022/01/03 06:32:03;;;;;;;12.30;1.33;;;;;;;;;;5027859;28;20300;-81
2022/01/03 06:34:30;;;;;;;10.37;0.90;;;;;;;;;;5023942;28;20240;-81
2022/01/03 06:36:57;;;;;;;6.67;1.27;;;;;;;;;;5028080;28;20207;-81
2022/01/03 06:39:26;;;;;;;4.43;1.10;;;;;;;;;;5027049;28;21126;-81
2022/01/03 06:41:53;;;;;;;9.53;1.10;;;;;;;;;;5026494;28;20212;-81
2022/01/03 06:44:20;;;;;;;4.70;1.03;;;;;;;;;;5028058;28;20669;-80
2022/01/03 06:46:47;;;;;;;6.43;1.10;;;;;;;;;;5030686;28;20199;-80
2022/01/03 06:49:15;;;;;;;6.40;1.47;;;;;;;;;;5033166;28;20214;-81
2022/01/03 06:51:42;;;;;;;10.37;1.27;;;;;;;;;;5031142;28;20216;-80
2022/01/03 06:54:11;;;;;;;10.70;0.97;;;;;;;;;;5028702;28;20292;-81
2022/01/03 06:56:40;;;;;;;4.83;0.90;;;;;;;;;;5030381;28;20237;-81
2022/01/03 06:59:07;;;;;;;9.10;1.50;;;;;;;;;;5029167;28;20662;-80
2022/01/03 07:01:34;;;;;;;7.70;1.10;;;;;;;;;;5028706;28;20208;-81
2022/01/03 07:04:01;;;;;;;7.37;0.90;;;;;;;;;;5028663;28;20207;-81
2022/01/03 07:06:29;;;;;;;14.03;1.63;;;;;;;;;;5026426;28;20692;-81
2022/01/03 07:08:56;;;;;;;11.17;1.47;;;;;;;;;;5026418;28;20204;-81
2022/01/03 07:11:24;;;;;;;11.40;1.30;;;;;;;;;;5029093;28;20196;-81
2022/01/03 07:14:04;;;;;;;9.93;1.27;;;;;;;;;;5026935;28;20703;-81
2022/01/03 07:19:16;;;;;;;8.30;1.23;;;;;;;;;;5030246;28;20203;-82
2022/01/03 07:21:43;;;;;;;9.27;1.10;;;;;;;;;;5030990;28;20654;-81
2022/01/03 07:24:11;;;;;;;11.07;1.13;;;;;;;;;;5023229;28;20214;-82
2022/01/03 07:26:38;;;;;;;10.07;1.47;;;;;;;;;;5023835;28;20208;-82
2022/01/03 07:29:07;;;;;;;7.20;1.40;;;;;;;;;;5023441;28;20215;-82
2022/01/03 07:31:34;;;;;;;10.13;1.47;;;;;;;;;;5025029;28;20797;-82
2022/01/03 08:07:48;;;;;;;11.33;1.30;;;;;;;;;;5698737;23;20235;-86
2022/01/03 08:10:16;;;;;;;6.77;1.70;;;;;;;;;;4990694;28;20287;-85
2022/01/03 08:12:44;;;;;;;9.87;1.87;;;;;;;;;;4996269;28;20287;-84
2022/01/03 08:15:12;;;;;;;8.60;1.33;;;;;;;;;;4987959;28;20730;-84
2022/01/03 08:17:39;;;;;;;5.03;1.30;;;;;;;;;;4986353;28;20288;-83
2022/01/03 08:20:07;;;;;;;10.33;1.60;;;;;;;;;;4997960;28;20201;-83
2022/01/03 08:22:34;;;;;;;7.97;1.70;;;;;;;;;;4995119;28;20651;-83
2022/01/03 08:25:03;;;;;;;10.50;1.40;;;;;;;;;;4994784;28;20205;-83
2022/01/03 08:27:30;;;;;;;5.77;1.00;;;;;;;;;;5002512;28;20326;-83
2022/01/03 08:29:57;;;;;;;6.67;0.97;;;;;;;;;;4999381;28;20586;-83
2022/01/03 08:32:24;;;;;;;4.73;0.83;;;;;;;;;;4996658;28;20201;-83
2022/01/03 08:34:52;;;;;;;3.27;1.40;;;;;;;;;;4994919;28;20225;-84
2022/01/03 08:37:19;;;;;;;4.60;0.93;;;;;;;;;;4989596;28;20703;-84
2022/01/03 08:39:46;;;;;;;15.63;1.70;;;;;;;;;;4995011;28;20251;-84
2022/01/03 08:42:15;;;;;;;9.87;1.40;;;;;;;;;;4992975;28;20275;-84
2022/01/03 08:44:42;;;;;;;4.17;1.10;;;;;;;;;;4989717;28;20691;-84
2022/01/03 08:47:09;;;;;;;11.00;1.70;;;;;;;;;;4993284;28;20264;-84
2022/01/03 08:49:36;;;;;;;5.53;1.47;;;;;;;;;;4993343;28;20211;-84
2022/01/03 08:52:05;;;;;;;7.90;1.33;;;;;;;;;;4993533;28;20236;-84
2022/01/03 08:54:35;;;;;;;16.10;1.47;;;;;;;;;;4995633;28;20341;-83
2022/01/03 08:57:02;;;;;;;9.90;1.67;;;;;;;;;;4991999;28;20252;-82
2022/01/03 08:59:31;;;;;;;6.70;1.53;;;;;;;;;;4992852;28;20374;-83
2022/01/03 09:01:58;;;;;;;8.97;1.50;;;;;;;;;;4989696;28;20300;-83
2022/01/03 09:04:25;;;;;;;13.50;1.67;;;;;;;;;;4991616;28;20562;-83
2022/01/03 09:06:53;;;;;;;15.97;1.60;;;;;;;;;;4993719;28;20553;-83
2022/01/03 09:09:20;;;;;;;7.37;1.20;;;;;;;;;;4987268;28;20689;-82
2022/01/03 09:11:47;;;;;;;7.70;1.10;;;;;;;;;;4989412;28;20259;-83
2022/01/03 09:14:17;;;;;;;8.80;1.20;;;;;;;;;;4988259;28;20275;-83
2022/01/03 09:16:45;;;;;;;9.90;1.80;;;;;;;;;;4989451;28;20219;-83
2022/01/03 09:19:12;;;;;;;14.67;1.80;;;;;;;;;;4993161;28;20245;-84
2022/01/03 09:21:40;;;;;;;10.27;1.53;;;;;;;;;;4986903;28;20228;-84
2022/01/03 09:24:22;;;;;;;8.73;1.87;;;;;;;;;;4992507;28;20231;-83
2022/01/03 09:29:34;;;;;;;12.37;1.80;;;;;;;;;;4991676;28;20199;-84
2022/01/03 09:32:03;;;;;;;12.77;2.20;;;;;;;;;;4993922;28;20295;-83
2022/01/03 09:34:31;;;;;;;13.90;1.67;;;;;;;;;;4998245;28;20252;-85
2022/01/03 09:36:58;;;;;;;10.80;1.40;;;;;;;;;;4992360;28;20214;-84
2022/01/03 09:39:25;;;;;;;9.77;1.50;;;;;;;;;;4994681;28;20720;-86
2022/01/03 09:41:57;;;;;;;5.20;1.37;;;;;;;;;;4997947;28;20236;-85
2022/01/03 09:44:28;;;;;;;11.27;1.67;;;;;;;;;;4990879;28;20256;-85
2022/01/03 09:46:56;;;;;;;9.97;1.73;;;;;;;;;;4992251;28;20221;-85
2022/01/03 09:49:27;;;;;;;8.37;1.30;;;;;;;;;;4984082;28;20207;-84
2022/01/03 09:51:55;;;;;;;8.73;1.50;;;;;;;;;;4999314;28;20205;-84
2022/01/03 09:54:22;;;;;;;12.47;1.40;;;;;;;;;;4986682;28;20328;-84
2022/01/03 09:56:51;;;;;;;8.40;2.03;;;;;;;;;;4995674;28;20275;-84
2022/01/03 09:59:20;;;;;;;9.03;1.30;;;;;;;;;;4991697;28;20594;-84
2022/01/03 10:01:47;;;;;;;7.00;1.67;;;;;;;;;;4996621;28;20197;-85
2022/01/03 10:04:15;;;;;;;12.90;1.93;;;;;;;;;;4991947;28;20197;-84
2022/01/03 10:06:44;;;;;;;9.10;1.20;;;;;;;;;;4983851;28;20229;-84
2022/01/03 10:09:12;;;;;;;19.20;1.60;;;;;;;;;;4989671;28;20226;-84
2022/01/03 10:11:39;;;;;;;12.83;2.00;;;;;;;;;;4996744;28;20743;-83
2022/01/03 10:14:07;;;;;;;9.23;1.53;;;;;;;;;;4999838;28;20312;-83
2022/01/03 10:16:34;;;;;;;9.83;1.90;;;;;;;;;;5000038;28;20380;-84
2022/01/03 10:19:01;;;;;;;9.40;1.37;;;;;;;;;;4995331;28;20225;-84
2022/01/03 10:21:36;;;;;;;7.93;1.50;;;;;;;;;;4999975;28;20337;-82
2022/01/03 10:24:05;;;;;;;9.47;1.30;;;;;;;;;;4992895;28;20209;-84
2022/01/03 10:26:32;;;;;;;10.70;2.23;;;;;;;;;;5000302;28;20232;-85
2022/01/03 10:29:12;;;;;;;10.60;1.57;;;;;;;;;;4991929;28;20252;-85
2022/01/03 10:31:40;;;;;;;10.23;1.83;;;;;;;;;;4996674;28;20746;-84
2022/01/03 10:34:09;;;;;;;12.00;1.60;;;;;;;;;;4991736;28;20232;-84
2022/01/03 10:36:36;;;;;;;12.03;1.63;;;;;;;;;;4997094;28;20224;-83
2022/01/03 10:39:14;;;;;;;12.27;1.70;;;;;;;;;;4993319;28;20304;-84
2022/01/03 10:41:41;;;;;;;10.13;1.30;;;;;;;;;;4991549;28;20247;-84
2022/01/03 10:44:09;;;;;;;7.63;1.20;;;;;;;;;;5001548;28;20201;-84
2022/01/03 10:46:37;;;;;;;13.37;1.50;;;;;;;;;;4990363;28;20272;-85
2022/01/03 10:49:09;;;;;;;13.57;2.40;;;;;;;;;;4990531;28;20241;-83
2022/01/03 10:51:36;;;;;;;15.60;2.37;;;;;;;;;;4995823;28;20247;-86
2022/01/03 10:54:04;;;;;;;8.70;1.20;;;;;;;;;;4999569;28;20312;-84
2022/01/03 10:56:34;;;;;;;14.60;1.73;;;;;;;;;;4998285;28;20287;-84
2022/01/03 10:59:03;;;;;;;12.80;2.20;;;;;;;;;;4987292;28;20640;-83
2022/01/03 11:01:31;;;;;;;10.57;1.87;;;;;;;;;;4999832;28;20224;-84
2022/01/03 11:04:01;;;;;;;13.60;2.47;;;;;;;;;;4999539;28;20211;-84
2022/01/03 11:06:49;;;;;;;9.43;1.57;;;;;;;;;;4992530;28;20674;-84
2022/01/03 11:12:19;;;;;;;7.50;1.63;;;;;;;;;;4994476;28;20205;-84
2022/01/03 11:14:47;;;;;;;13.73;2.00;;;;;;;;;;4997428;28;20224;-85
2022/01/03 11:17:24;;;;;;;12.00;1.43;;;;;;;;;;4998035;28;20673;-84
2022/01/03 11:19:51;;;;;;;7.07;1.23;;;;;;;;;;4995377;28;20216;-84
2022/01/03 11:22:39;;;;;;;10.90;1.70;;;;;;;;;;4989037;28;20265;-84
2022/01/03 11:25:07;;;;;;;14.20;1.87;;;;;;;;;;4992461;28;20201;-84
2022/01/03 11:27:38;;;;;;;12.87;1.93;;;;;;;;;;4989246;28;20295;-84
2022/01/03 11:30:06;;;;;;;8.87;1.50;;;;;;;;;;4992556;28;20260;-84
2022/01/03 11:32:34;;;;;;;11.00;1.70;;;;;;;;;;4993902;28;20243;-85
2022/01/03 11:35:01;;;;;;;15.87;1.97;;;;;;;;;;5000688;28;20221;-84
2022/01/03 11:37:32;;;;;;;11.70;1.40;;;;;;;;;;4990569;28;20304;-84
2022/01/03 11:40:00;;;;;;;3.67;1.20;;;;;;;;;;4997226;28;20658;-84
2022/01/03 11:42:27;;;;;;;7.27;1.37;;;;;;;;;;4996044;28;20661;-84
2022/01/03 11:44:56;;;;;;;8.93;1.77;;;;;;;;;;4995240;28;20213;-84
2022/01/03 11:47:23;;;;;;;9.83;1.20;;;;;;;;;;4995700;28;20233;-83
2022/01/03 11:49:51;;;;;;;11.90;1.47;;;;;;;;;;4990537;28;20201;-84
2022/01/03 11:52:19;;;;;;;12.73;1.43;;;;;;;;;;4994293;28;20583;-83
2022/01/03 11:54:46;;;;;;;6.93;1.50;;;;;;;;;;4990851;28;20324;-84
2022/01/03 11:57:20;;;;;;;14.30;1.80;;;;;;;;;;4992196;28;20232;-83
2022/01/03 12:05:41;;;;;;;7.23;1.50;;;;;;;;;;4995128;28;20217;-85
2022/01/03 12:08:08;;;;;;;4.10;0.73;;;;;;;;;;4998230;28;20233;-84
2022/01/03 12:10:45;;;;;;;5.27;1.10;;;;;;;;;;4990291;28;20256;-83
2022/01/03 12:13:12;;;;;;;6.37;0.97;;;;;;;;;;4986728;28;20236;-83
2022/01/03 12:15:42;;;;;;;3.63;0.70;;;;;;;;;;4988655;28;20279;-82
2022/01/03 12:18:24;;;;;;;6.07;0.80;;;;;;;;;;4990182;28;20220;-85
2022/01/03 12:20:53;;;;;;;5.60;1.20;;;;;;;;;;4988405;28;20236;-83
2022/01/03 12:23:37;;;;;;;3.87;0.90;;;;;;;;;;4997026;28;20213;-83
2022/01/03 12:26:11;;;;;;;2.73;0.50;;;;;;;;;;4994896;28;20204;-84
2022/01/03 12:28:57;;;;;;;4.77;0.80;;;;;;;;;;4997312;28;20259;-84
2022/01/03 12:31:24;;;;;;;4.50;1.03;;;;;;;;;;4996276;28;20207;-85
2022/01/03 12:34:06;;;;;;;8.53;0.90;;;;;;;;;;4995099;28;20316;-85
2022/01/03 12:36:35;;;;;;;6.97;1.03;;;;;;;;;;4988225;28;20220;-84
2022/01/03 12:39:03;;;;;;;1.20;0.40;;;;;;;;;;5000352;28;20229;-84
2022/01/03 12:41:39;;;;;;;5.67;0.47;;;;;;;;;;5000775;28;20209;-84
2022/01/03 12:44:06;;;;;;;2.93;0.60;;;;;;;;;;4990648;28;20281;-84
2022/01/03 12:46:33;;;;;;;4.23;0.70;;;;;;;;;;4994378;28;20204;-84
2022/01/03 12:49:21;;;;;;;5.17;0.93;;;;;;;;;;4999792;28;20224;-84
2022/01/03 12:51:49;;;;;;;7.60;1.90;;;;;;;;;;5000263;28;20205;-84
2022/01/03 12:54:37;;;;;;;4.33;1.07;;;;;;;;;;5008860;28;20294;-84
2022/01/03 12:57:13;;;;;;;6.67;0.90;;;;;;;;;;4992484;28;20212;-84
2022/01/03 12:59:41;;;;;;;6.83;1.60;;;;;;;;;;4987091;28;20218;-85
2022/01/03 13:02:30;;;;;;;7.10;1.70;;;;;;;;;;4998580;28;20208;-84
2022/01/03 13:04:57;;;;;;;7.50;2.90;;;;;;;;;;5002084;28;20228;-85
2022/01/03 13:07:26;;;;;;;9.87;1.60;;;;;;;;;;5010667;28;20304;-84
2022/01/03 13:09:53;;;;;;;8.77;1.00;;;;;;;;;;5011670;28;20204;-85
2022/01/03 13:12:21;;;;;;;6.03;1.00;;;;;;;;;;5000731;28;20256;-84
2022/01/03 13:14:49;;;;;;;3.83;1.10;;;;;;;;;;4989167;28;20233;-85
2022/01/03 13:17:16;;;;;;;3.90;0.60;;;;;;;;;;5003890;28;20610;-84
2022/01/03 13:19:44;;;;;;;5.87;1.30;;;;;;;;;;4998191;28;20240;-85
2022/01/03 13:22:12;;;;;;;6.67;1.17;;;;;;;;;;4983667;28;20231;-84
2022/01/03 13:24:43;;;;;;;9.20;3.37;;;;;;;;;;4991927;28;20763;-83
2022/01/03 13:27:17;;;;;;;16.10;6.00;;;;;;;;;;4997424;28;20312;-84
2022/01/03 13:29:45;;;;;;;11.27;4.17;;;;;;;;;;4995762;28;20300;-83
2022/01/03 13:32:15;;;;;;;16.10;8.47;;;;;;;;;;4990604;28;20256;-84
2022/01/03 13:34:43;;;;;;;10.30;4.47;;;;;;;;;;4999027;28;20229;-84
2022/01/03 13:37:11;;;;;;;8.73;2.23;;;;;;;;;;4996872;28;20256;-84
2022/01/03 13:39:38;;;;;;;8.23;2.27;;;;;;;;;;4989735;28;20311;-83
2022/01/03 13:42:09;;;;;;;4.70;1.30;;;;;;;;;;5000498;28;20229;-85
2022/01/03 13:50:09;;;;;;;7.73;1.80;;;;;;;;;;4994582;28;20279;-85
2022/01/03 13:52:38;;;;;;;3.87;1.10;;;;;;;;;;4991681;28;20303;-83
2022/01/03 13:55:14;;;;;;;2.07;0.90;;;;;;;;;;4990795;28;20240;-84
2022/01/03 13:57:43;;;;;;;4.03;1.00;;;;;;;;;;5001154;28;20391;-84
2022/01/03 14:00:11;;;;;;;6.23;2.20;;;;;;;;;;4991359;28;20204;-83
2022/01/03 14:02:39;;;;;;;4.73;0.97;;;;;;;;;;4994938;28;20215;-85
2022/01/03 14:05:07;;;;;;;4.50;1.37;;;;;;;;;;4997709;28;20240;-83
2022/01/03 14:07:35;;;;;;;6.10;2.80;;;;;;;;;;4989652;28;20268;-83
2022/01/03 14:10:02;;;;;;;4.23;1.80;;;;;;;;;;4988398;28;20688;-83
2022/01/03 14:12:30;;;;;;;4.50;1.60;;;;;;;;;;4993191;28;20205;-84
2022/01/03 14:15:01;;;;;;;4.33;1.20;;;;;;;;;;4995259;28;20238;-84
2022/01/03 14:17:29;;;;;;;2.53;0.70;;;;;;;;;;4997080;28;20386;-84
2022/01/03 14:20:00;;;;;;;1.83;0.93;;;;;;;;;;4995083;28;20219;-84
2022/01/03 14:22:32;;;;;;;5.00;1.40;;;;;;;;;;4995826;28;20213;-85
2022/01/03 14:25:03;;;;;;;2.67;0.70;;;;;;;;;;4992323;28;20216;-84
2022/01/03 14:27:31;;;;;;;7.13;1.00;;;;;;;;;;5000640;28;20239;-84
2022/01/03 14:30:13;;;;;;;4.43;1.70;;;;;;;;;;5013800;28;20236;-85
2022/01/03 14:32:41;;;;;;;5.13;1.40;;;;;;;;;;4986169;28;20251;-84
2022/01/03 14:35:09;;;;;;;5.80;1.23;;;;;;;;;;4997161;28;20284;-83
2022/01/03 14:37:36;;;;;;;4.27;0.87;;;;;;;;;;5002694;28;20252;-84
2022/01/03 14:40:05;;;;;;;6.13;1.57;;;;;;;;;;5002325;28;20259;-84
2022/01/03 14:42:34;;;;;;;7.47;2.00;;;;;;;;;;4989966;28;20728;-84
2022/01/03 14:45:08;;;;;;;6.50;1.70;;;;;;;;;;5000820;28;20197;-83
2022/01/03 14:47:37;;;;;;;5.57;1.20;;;;;;;;;;4997888;28;20311;-84
2022/01/03 14:50:06;;;;;;;8.53;1.17;;;;;;;;;;4998486;28;20300;-83
2022/01/03 14:52:34;;;;;;;9.27;1.90;;;;;;;;;;5000253;28;20296;-84
2022/01/03 14:55:02;;;;;;;14.03;1.87;;;;;;;;;;5003844;28;20717;-84
2022/01/03 14:57:30;;;;;;;5.73;1.80;;;;;;;;;;4992685;28;20601;-83
2022/01/03 14:59:58;;;;;;;12.67;1.60;;;;;;;;;;4995832;28;20213;-83
2022/01/03 15:05:30;;;;;;;6.73;1.23;;;;;;;;;;4989881;28;20195;-85
2022/01/03 15:07:58;;;;;;;6.30;1.30;;;;;;;;;;4992609;28;20233;-85
2022/01/03 15:10:25;;;;;;;5.20;1.60;;;;;;;;;;4994323;28;20688;-83
2022/01/03 15:12:53;;;;;;;14.67;3.50;;;;;;;;;;4998779;28;20217;-84
2022/01/03 15:15:21;;;;;;;8.63;2.77;;;;;;;;;;4989777;28;20575;-83
2022/01/03 15:17:48;;;;;;;6.77;1.27;;;;;;;;;;4992084;28;20264;-84
2022/01/03 15:20:15;;;;;;;5.50;1.70;;;;;;;;;;5001935;28;20291;-84
2022/01/03 15:22:44;;;;;;;12.70;2.30;;;;;;;;;;4989109;28;20212;-84
2022/01/03 15:25:11;;;;;;;10.90;1.67;;;;;;;;;;4990893;28;20651;-84
2022/01/03 15:27:39;;;;;;;5.90;2.03;;;;;;;;;;4991880;28;20238;-84
2022/01/03 15:30:07;;;;;;;7.03;1.50;;;;;;;;;;4997755;28;20251;-84
2022/01/03 15:32:35;;;;;;;7.00;1.50;;;;;;;;;;4998970;28;20217;-84
2022/01/03 15:35:05;;;;;;;5.57;1.50;;;;;;;;;;4993844;28;20257;-84
2022/01/03 15:37:32;;;;;;;6.23;2.07;;;;;;;;;;4991134;28;20308;-84
2022/01/03 15:40:00;;;;;;;8.63;2.03;;;;;;;;;;4992145;28;20236;-85
2022/01/03 15:42:28;;;;;;;10.27;2.33;;;;;;;;;;4989932;28;20306;-85
2022/01/03 15:44:55;;;;;;;8.60;2.30;;;;;;;;;;4989282;28;20233;-84
2022/01/03 15:47:24;;;;;;;8.70;2.60;;;;;;;;;;4986365;28;20304;-83